Time;durP1;ratioP1;P1;durP2;ratioP2;P2;SDS_P1;SDS_P2;PMS_P1;PMS_P2;Temp;Humidity;BMP_temperature;BMP_pressure;BME280_temperature;BME280_humidity;BME280_pressure;Samples;Min_cycle;Max_cycle;Signal;HPM_P1;HPM_P2
2023/04/22 00:00:16;;;;;;;36.92;19.55;;;;;;;;;;5112968;28;20406;-65
2023/04/22 00:02:42;;;;;;;40.83;17.92;;;;;;;;;;5113145;28;20019;-66
2023/04/22 00:05:12;;;;;;;40.65;19.83;;;;;;;;;;5112934;28;20042;-65
2023/04/22 00:07:38;;;;;;;37.58;18.38;;;;;;;;;;5112970;28;20032;-65
2023/04/22 00:10:05;;;;;;;37.60;18.27;;;;;;;;;;5112911;28;20237;-66
2023/04/22 00:12:31;;;;;;;35.95;17.77;;;;;;;;;;5112696;28;20052;-65
2023/04/22 00:14:57;;;;;;;38.15;18.92;;;;;;;;;;5112951;28;20037;-65
2023/04/22 00:17:23;;;;;;;40.17;17.67;;;;;;;;;;5112824;28;20015;-65
2023/04/22 00:19:49;;;;;;;42.17;19.48;;;;;;;;;;5112631;28;20043;-67
2023/04/22 00:22:15;;;;;;;36.97;17.70;;;;;;;;;;5112833;28;20019;-65
2023/04/22 00:24:41;;;;;;;41.15;17.15;;;;;;;;;;5112322;28;20076;-65
2023/04/22 00:27:08;;;;;;;36.00;16.90;;;;;;;;;;5112839;28;20027;-66
2023/04/22 00:29:34;;;;;;;34.40;16.75;;;;;;;;;;5112374;28;20495;-66
2023/04/22 00:32:00;;;;;;;38.25;18.83;;;;;;;;;;5112712;28;20030;-67
2023/04/22 00:34:26;;;;;;;39.00;20.38;;;;;;;;;;5112312;28;20015;-66
2023/04/22 00:36:52;;;;;;;47.92;21.33;;;;;;;;;;5112500;28;20051;-65
2023/04/22 00:39:18;;;;;;;47.20;21.92;;;;;;;;;;5112186;28;20069;-66
2023/04/22 00:41:45;;;;;;;52.15;23.27;;;;;;;;;;5111131;28;20026;-66
2023/04/22 00:44:11;;;;;;;51.22;23.73;;;;;;;;;;5112259;28;20106;-66
2023/04/22 00:46:38;;;;;;;52.90;24.55;;;;;;;;;;5112022;28;20491;-66
2023/04/22 00:49:04;;;;;;;49.45;23.75;;;;;;;;;;5112031;28;20031;-66
2023/04/22 00:51:31;;;;;;;64.82;27.10;;;;;;;;;;5112237;28;20491;-65
2023/04/22 00:53:57;;;;;;;55.10;25.83;;;;;;;;;;5112149;28;20106;-66
2023/04/22 00:56:25;;;;;;;56.03;26.23;;;;;;;;;;5112088;28;20031;-66
2023/04/22 00:58:51;;;;;;;60.03;27.30;;;;;;;;;;5111825;28;20027;-65
2023/04/22 01:01:17;;;;;;;60.15;26.48;;;;;;;;;;5112211;28;20019;-65
2023/04/22 01:03:43;;;;;;;62.92;27.70;;;;;;;;;;5111958;28;20026;-67
2023/04/22 01:06:09;;;;;;;58.65;27.27;;;;;;;;;;5111885;28;20510;-65
2023/04/22 01:08:35;;;;;;;64.60;27.95;;;;;;;;;;5111790;28;20506;-64
2023/04/22 01:11:02;;;;;;;57.83;26.35;;;;;;;;;;5111919;28;20492;-66
2023/04/22 01:13:29;;;;;;;63.17;27.92;;;;;;;;;;5111740;28;20122;-65
2023/04/22 01:15:55;;;;;;;60.42;26.17;;;;;;;;;;5111790;28;20027;-65
2023/04/22 01:18:22;;;;;;;48.33;24.02;;;;;;;;;;5111638;28;20077;-66
2023/04/22 01:20:48;;;;;;;49.72;22.80;;;;;;;;;;5111914;28;20038;-65
2023/04/22 01:23:23;;;;;;;52.97;23.92;;;;;;;;;;5111748;28;20019;-67
2023/04/22 01:25:49;;;;;;;47.25;22.00;;;;;;;;;;5111667;28;20038;-66
2023/04/22 01:28:16;;;;;;;49.47;23.40;;;;;;;;;;5110270;28;20020;-66
2023/04/22 01:30:43;;;;;;;54.03;24.75;;;;;;;;;;5111605;28;20077;-66
2023/04/22 01:33:09;;;;;;;54.08;24.10;;;;;;;;;;5111936;28;20076;-68
2023/04/22 01:35:36;;;;;;;51.85;22.92;;;;;;;;;;5111577;28;20070;-65
2023/04/22 01:38:09;;;;;;;55.95;23.65;;;;;;;;;;5114935;28;20020;-66
2023/04/22 01:40:35;;;;;;;57.75;24.77;;;;;;;;;;5115849;28;20704;-65
2023/04/22 01:43:02;;;;;;;56.35;24.05;;;;;;;;;;5115886;28;20038;-65
2023/04/22 01:45:28;;;;;;;56.25;24.35;;;;;;;;;;5115397;28;20036;-65
2023/04/22 01:47:54;;;;;;;54.42;24.38;;;;;;;;;;5115578;28;20136;-66
2023/04/22 01:50:21;;;;;;;57.40;24.83;;;;;;;;;;5115593;28;20068;-65
2023/04/22 01:52:47;;;;;;;55.13;23.67;;;;;;;;;;5115586;28;20494;-65
2023/04/22 01:55:14;;;;;;;50.10;22.60;;;;;;;;;;5115503;28;20058;-65
2023/04/22 01:57:40;;;;;;;51.25;22.10;;;;;;;;;;5115439;28;20011;-65
2023/04/22 02:00:07;;;;;;;47.88;21.95;;;;;;;;;;5115311;28;20023;-66
2023/04/22 02:02:33;;;;;;;48.95;21.98;;;;;;;;;;5115700;28;20031;-65
2023/04/22 02:04:59;;;;;;;51.22;21.90;;;;;;;;;;5115534;28;20024;-65
2023/04/22 02:07:25;;;;;;;48.40;21.67;;;;;;;;;;5115335;28;20059;-65
2023/04/22 02:09:51;;;;;;;49.38;22.10;;;;;;;;;;5115128;28;20065;-65
2023/04/22 02:12:17;;;;;;;47.13;21.98;;;;;;;;;;5115244;28;20020;-64
2023/04/22 02:14:43;;;;;;;47.00;19.75;;;;;;;;;;5115179;28;20024;-65
2023/04/22 02:17:09;;;;;;;52.20;22.10;;;;;;;;;;5115092;28;20064;-65
2023/04/22 02:19:35;;;;;;;53.10;21.92;;;;;;;;;;5115069;28;20027;-65
2023/04/22 02:22:02;;;;;;;44.85;20.17;;;;;;;;;;5115145;28;20069;-65
2023/04/22 02:24:28;;;;;;;45.85;21.27;;;;;;;;;;5114760;28;20027;-65
2023/04/22 02:26:54;;;;;;;46.30;19.67;;;;;;;;;;5113546;28;20430;-66
2023/04/22 02:29:20;;;;;;;42.95;18.70;;;;;;;;;;5114761;28;20479;-65
2023/04/22 02:31:46;;;;;;;44.72;20.13;;;;;;;;;;5115002;28;20032;-65
2023/04/22 02:34:12;;;;;;;48.72;20.40;;;;;;;;;;5114806;28;20020;-65
2023/04/22 02:36:38;;;;;;;45.00;19.08;;;;;;;;;;5114636;28;20480;-66
2023/04/22 02:39:04;;;;;;;46.55;19.77;;;;;;;;;;5114617;28;20560;-65
2023/04/22 02:41:31;;;;;;;42.88;18.63;;;;;;;;;;5114435;28;20057;-65
2023/04/22 02:43:57;;;;;;;38.88;18.77;;;;;;;;;;5114611;28;20059;-65
2023/04/22 02:46:23;;;;;;;36.63;17.55;;;;;;;;;;5114330;28;20047;-65
2023/04/22 02:48:49;;;;;;;43.00;18.90;;;;;;;;;;5114314;28;20029;-66
2023/04/22 02:51:15;;;;;;;36.42;16.50;;;;;;;;;;5114450;28;20031;-65
2023/04/22 02:53:41;;;;;;;37.60;16.75;;;;;;;;;;5114472;28;20051;-67
2023/04/22 02:56:08;;;;;;;37.40;16.00;;;;;;;;;;5114357;28;20030;-65
2023/04/22 02:58:34;;;;;;;36.70;16.70;;;;;;;;;;5114313;28;20020;-65
2023/04/22 03:01:00;;;;;;;37.42;15.50;;;;;;;;;;5114114;28;20597;-66
2023/04/22 03:03:26;;;;;;;39.00;16.05;;;;;;;;;;5114068;28;20496;-65
2023/04/22 03:05:52;;;;;;;38.72;17.50;;;;;;;;;;5114031;28;20088;-65
2023/04/22 03:08:19;;;;;;;36.40;15.77;;;;;;;;;;5114111;28;20107;-65
2023/04/22 03:10:45;;;;;;;38.05;15.93;;;;;;;;;;5114151;28;20032;-64
2023/04/22 03:13:13;;;;;;;32.28;14.93;;;;;;;;;;5114071;28;20099;-64
2023/04/22 03:15:42;;;;;;;33.38;16.15;;;;;;;;;;5113866;28;20077;-65
2023/04/22 03:18:08;;;;;;;34.58;15.40;;;;;;;;;;5114034;28;20537;-65
2023/04/22 03:20:34;;;;;;;40.10;16.92;;;;;;;;;;5113891;28;20019;-65
2023/04/22 03:23:00;;;;;;;37.30;15.68;;;;;;;;;;5113860;28;20028;-65
2023/04/22 03:25:26;;;;;;;33.28;14.40;;;;;;;;;;5113607;28;20176;-65
2023/04/22 03:27:52;;;;;;;32.05;15.63;;;;;;;;;;5113697;28;20020;-65
2023/04/22 03:30:19;;;;;;;30.10;14.70;;;;;;;;;;5113807;28;20597;-65
2023/04/22 03:32:45;;;;;;;35.70;15.38;;;;;;;;;;5113795;28;20027;-66
2023/04/22 03:35:11;;;;;;;30.35;14.50;;;;;;;;;;5113552;28;20016;-65
2023/04/22 03:37:37;;;;;;;31.13;13.80;;;;;;;;;;5113530;28;20020;-66
2023/04/22 03:40:04;;;;;;;30.23;13.68;;;;;;;;;;5113474;27;20464;-66
2023/04/22 03:42:30;;;;;;;27.58;14.02;;;;;;;;;;5113461;28;20023;-66
2023/04/22 03:44:56;;;;;;;29.77;13.32;;;;;;;;;;5113306;28;20430;-65
2023/04/22 03:47:22;;;;;;;26.77;13.23;;;;;;;;;;5113302;28;20063;-66
2023/04/22 03:49:48;;;;;;;26.98;12.50;;;;;;;;;;5113428;28;20076;-66
2023/04/22 03:52:15;;;;;;;25.02;12.15;;;;;;;;;;5113444;28;20046;-65
2023/04/22 03:54:41;;;;;;;24.90;11.90;;;;;;;;;;5113370;28;20023;-66
2023/04/22 03:57:07;;;;;;;24.27;11.82;;;;;;;;;;5113301;28;20058;-65
2023/04/22 03:59:33;;;;;;;24.05;11.57;;;;;;;;;;5112538;28;20026;-65
2023/04/22 04:01:59;;;;;;;24.50;12.50;;;;;;;;;;5113210;28;20111;-66
2023/04/22 04:04:27;;;;;;;23.67;12.48;;;;;;;;;;5113058;28;20032;-65
2023/04/22 04:06:54;;;;;;;28.08;12.27;;;;;;;;;;5112780;28;20125;-65
2023/04/22 04:09:20;;;;;;;27.48;13.13;;;;;;;;;;5112890;28;20043;-64
2023/04/22 04:11:46;;;;;;;24.15;12.40;;;;;;;;;;5112997;28;20034;-66
2023/04/22 04:14:12;;;;;;;27.15;12.07;;;;;;;;;;5112789;28;20704;-66
2023/04/22 04:16:38;;;;;;;22.35;12.73;;;;;;;;;;5112888;28;20396;-65
2023/04/22 04:19:05;;;;;;;22.10;11.27;;;;;;;;;;5112620;28;20377;-65
2023/04/22 04:21:32;;;;;;;27.90;12.45;;;;;;;;;;5112582;28;20020;-66
2023/04/22 04:23:58;;;;;;;23.63;12.38;;;;;;;;;;5112561;28;20027;-65
2023/04/22 04:26:26;;;;;;;25.27;11.73;;;;;;;;;;5112574;28;20028;-66
2023/04/22 04:28:52;;;;;;;26.08;11.95;;;;;;;;;;5112347;28;20076;-65
2023/04/22 04:31:18;;;;;;;28.25;13.43;;;;;;;;;;5112425;28;20507;-65
2023/04/22 04:33:45;;;;;;;32.30;13.57;;;;;;;;;;5112494;28;20441;-66
2023/04/22 04:36:11;;;;;;;28.42;13.60;;;;;;;;;;5112505;28;20464;-65
2023/04/22 04:38:37;;;;;;;29.30;13.30;;;;;;;;;;5112099;28;20468;-65
2023/04/22 04:41:04;;;;;;;24.85;13.50;;;;;;;;;;5112294;28;20034;-65
2023/04/22 04:43:30;;;;;;;26.15;13.20;;;;;;;;;;5112446;28;20089;-64
2023/04/22 04:45:56;;;;;;;29.77;14.20;;;;;;;;;;5111884;28;20039;-65
2023/04/22 04:48:26;;;;;;;41.92;19.15;;;;;;;;;;5112280;28;20077;-66
2023/04/22 04:50:53;;;;;;;44.17;19.08;;;;;;;;;;5111962;28;20026;-66
2023/04/22 04:53:22;;;;;;;48.80;20.83;;;;;;;;;;5112294;28;20026;-65
2023/04/22 04:55:48;;;;;;;46.75;20.88;;;;;;;;;;5112146;28;20105;-66
2023/04/22 04:58:14;;;;;;;44.22;19.13;;;;;;;;;;5110506;28;20024;-65
2023/04/22 05:00:40;;;;;;;35.40;15.98;;;;;;;;;;5111997;28;20567;-66
2023/04/22 05:03:06;;;;;;;31.40;17.08;;;;;;;;;;5111798;28;20058;-66
2023/04/22 05:05:32;;;;;;;30.92;14.50;;;;;;;;;;5111921;28;20043;-66
2023/04/22 05:07:58;;;;;;;32.05;15.40;;;;;;;;;;5111872;28;20501;-64
2023/04/22 05:10:24;;;;;;;30.27;15.88;;;;;;;;;;5111735;28;20390;-65
2023/04/22 05:12:50;;;;;;;31.17;15.15;;;;;;;;;;5112051;28;20016;-65
2023/04/22 05:15:16;;;;;;;32.72;15.05;;;;;;;;;;5111669;28;20376;-65
2023/04/22 05:17:43;;;;;;;28.92;13.82;;;;;;;;;;5111996;28;20023;-65
2023/04/22 05:20:09;;;;;;;27.75;14.65;;;;;;;;;;5111740;28;20019;-64
2023/04/22 05:22:36;;;;;;;33.45;14.75;;;;;;;;;;5111949;28;20675;-66
2023/04/22 05:25:03;;;;;;;31.98;15.93;;;;;;;;;;5111574;28;20019;-65
2023/04/22 05:27:29;;;;;;;32.00;15.35;;;;;;;;;;5111529;28;20480;-66
2023/04/22 05:29:55;;;;;;;35.70;16.80;;;;;;;;;;5111408;28;20035;-67
2023/04/22 05:32:21;;;;;;;37.05;16.75;;;;;;;;;;5111360;28;20027;-67
2023/04/22 05:34:47;;;;;;;33.75;19.10;;;;;;;;;;5111600;28;20027;-68
2023/04/22 05:37:13;;;;;;;38.85;19.10;;;;;;;;;;5111526;28;20051;-66
2023/04/22 05:39:40;;;;;;;36.33;19.50;;;;;;;;;;5111517;28;20024;-67
2023/04/22 05:42:06;;;;;;;34.60;17.77;;;;;;;;;;5111660;28;20028;-65
2023/04/22 05:44:32;;;;;;;37.00;18.25;;;;;;;;;;5111477;28;20020;-65
2023/04/22 05:46:58;;;;;;;52.15;21.42;;;;;;;;;;5111040;28;20047;-65
2023/04/22 05:49:24;;;;;;;49.90;21.50;;;;;;;;;;5111735;28;20031;-65
2023/04/22 05:51:50;;;;;;;48.47;22.55;;;;;;;;;;5111415;28;20069;-65
2023/04/22 05:54:16;;;;;;;50.20;23.85;;;;;;;;;;5111389;28;20024;-66
2023/04/22 05:56:42;;;;;;;47.15;21.00;;;;;;;;;;5111269;28;20035;-66
2023/04/22 05:59:08;;;;;;;51.55;22.90;;;;;;;;;;5111346;28;20026;-66
2023/04/22 06:01:36;;;;;;;52.78;23.95;;;;;;;;;;5110222;28;20019;-68
2023/04/22 06:04:03;;;;;;;52.15;23.85;;;;;;;;;;5093313;28;20031;-69
2023/04/22 06:06:30;;;;;;;58.58;26.05;;;;;;;;;;5090937;28;20036;-67
2023/04/22 06:08:56;;;;;;;56.13;24.55;;;;;;;;;;5104048;28;20051;-67
2023/04/22 06:11:22;;;;;;;57.65;25.65;;;;;;;;;;5111158;28;20032;-67
2023/04/22 06:13:48;;;;;;;53.30;24.05;;;;;;;;;;5110933;28;20045;-66
2023/04/22 06:16:14;;;;;;;61.20;25.90;;;;;;;;;;5111261;28;20114;-67
2023/04/22 06:18:42;;;;;;;59.25;25.55;;;;;;;;;;5111134;28;20026;-67
2023/04/22 06:21:08;;;;;;;55.38;25.45;;;;;;;;;;5111042;28;20028;-67
2023/04/22 06:23:34;;;;;;;53.22;24.08;;;;;;;;;;5113308;28;20103;-65
2023/04/22 06:26:00;;;;;;;53.33;24.98;;;;;;;;;;5115038;28;20515;-69
2023/04/22 06:28:27;;;;;;;55.10;25.50;;;;;;;;;;5115042;28;20034;-65
2023/04/22 06:30:53;;;;;;;49.10;23.65;;;;;;;;;;5109490;28;20098;-65
2023/04/22 06:33:19;;;;;;;54.25;24.23;;;;;;;;;;5102977;28;20038;-67
2023/04/22 06:35:45;;;;;;;52.70;24.38;;;;;;;;;;5113856;28;20031;-67
2023/04/22 06:38:11;;;;;;;54.58;25.05;;;;;;;;;;5099097;28;20025;-64
2023/04/22 06:40:37;;;;;;;51.22;23.55;;;;;;;;;;5094326;28;20032;-64
2023/04/22 06:43:03;;;;;;;48.67;22.90;;;;;;;;;;5094617;28;20082;-67
2023/04/22 06:45:29;;;;;;;49.25;22.67;;;;;;;;;;5094057;28;20208;-64
2023/04/22 06:47:55;;;;;;;43.92;21.92;;;;;;;;;;5113639;28;20083;-66
2023/04/22 06:50:22;;;;;;;44.50;21.15;;;;;;;;;;5114120;28;20048;-64
2023/04/22 06:52:48;;;;;;;44.35;21.23;;;;;;;;;;5114230;28;20019;-65
2023/04/22 06:55:14;;;;;;;49.00;22.23;;;;;;;;;;5114426;28;20024;-65
2023/04/22 06:57:40;;;;;;;46.58;22.48;;;;;;;;;;5114351;28;20023;-64
2023/04/22 07:00:09;;;;;;;51.22;24.13;;;;;;;;;;5113372;28;20038;-65
2023/04/22 07:02:35;;;;;;;46.55;21.08;;;;;;;;;;5114201;28;20043;-64
2023/04/22 07:05:01;;;;;;;44.35;22.40;;;;;;;;;;5114259;28;20059;-65
2023/04/22 07:07:28;;;;;;;44.85;21.50;;;;;;;;;;5114077;28;20032;-66
2023/04/22 07:09:54;;;;;;;49.80;22.38;;;;;;;;;;5114199;28;20027;-64
2023/04/22 07:12:20;;;;;;;40.38;20.80;;;;;;;;;;5114093;28;20023;-66
2023/04/22 07:14:46;;;;;;;50.95;22.83;;;;;;;;;;5114049;28;20026;-65
2023/04/22 07:17:12;;;;;;;49.05;23.48;;;;;;;;;;5098613;28;20058;-64
2023/04/22 07:19:38;;;;;;;47.03;23.17;;;;;;;;;;5105705;28;20056;-67
2023/04/22 07:22:05;;;;;;;47.22;23.73;;;;;;;;;;5108239;28;20028;-66
2023/04/22 07:24:31;;;;;;;46.05;21.88;;;;;;;;;;5104006;28;20066;-65
2023/04/22 07:26:57;;;;;;;43.58;21.75;;;;;;;;;;5098256;28;20036;-64
2023/04/22 07:29:23;;;;;;;44.10;22.15;;;;;;;;;;5108741;28;20031;-64
2023/04/22 07:31:50;;;;;;;43.25;22.13;;;;;;;;;;5112212;28;20073;-66
2023/04/22 07:34:17;;;;;;;40.72;21.60;;;;;;;;;;5092012;28;20080;-67
2023/04/22 07:36:43;;;;;;;42.97;21.70;;;;;;;;;;5092902;28;20016;-67
2023/04/22 07:39:09;;;;;;;46.78;22.17;;;;;;;;;;5094124;28;20130;-68
2023/04/22 07:41:35;;;;;;;40.38;20.92;;;;;;;;;;5092474;28;20052;-67
2023/04/22 07:44:02;;;;;;;44.22;22.02;;;;;;;;;;5092718;28;20112;-67
2023/04/22 07:46:28;;;;;;;40.00;20.92;;;;;;;;;;5092125;28;20056;-67
2023/04/22 07:48:55;;;;;;;43.30;21.50;;;;;;;;;;5090463;28;20035;-65
2023/04/22 07:51:21;;;;;;;38.58;22.50;;;;;;;;;;5091689;28;20024;-65
2023/04/22 07:53:47;;;;;;;41.50;20.40;;;;;;;;;;5105873;28;20560;-66
2023/04/22 07:56:14;;;;;;;34.95;19.38;;;;;;;;;;5093496;28;20048;-67
2023/04/22 07:58:40;;;;;;;38.33;20.30;;;;;;;;;;5093771;28;20042;-67
2023/04/22 08:01:06;;;;;;;36.42;19.52;;;;;;;;;;5098060;28;20173;-65
2023/04/22 08:03:32;;;;;;;34.95;19.67;;;;;;;;;;5100813;28;20277;-67
2023/04/22 08:05:58;;;;;;;37.88;18.58;;;;;;;;;;5099562;28;20122;-66
2023/04/22 08:08:25;;;;;;;28.98;16.30;;;;;;;;;;5101670;28;20092;-67
2023/04/22 08:10:51;;;;;;;30.08;17.77;;;;;;;;;;5108964;28;20432;-66
2023/04/22 08:13:17;;;;;;;24.67;15.82;;;;;;;;;;5111702;28;20106;-65
2023/04/22 08:15:43;;;;;;;21.67;12.30;;;;;;;;;;5100640;28;20374;-66
2023/04/22 08:18:09;;;;;;;26.45;14.18;;;;;;;;;;5093319;28;20024;-65
2023/04/22 08:20:35;;;;;;;22.67;14.75;;;;;;;;;;5108493;28;20472;-66
2023/04/22 08:23:01;;;;;;;26.55;15.70;;;;;;;;;;5092155;28;20090;-65
2023/04/22 08:25:28;;;;;;;23.05;13.93;;;;;;;;;;5094967;28;20082;-65
2023/04/22 08:27:55;;;;;;;25.15;14.30;;;;;;;;;;5091661;28;20433;-65
2023/04/22 08:30:21;;;;;;;20.48;13.52;;;;;;;;;;5092722;28;20032;-64
2023/04/22 08:32:47;;;;;;;18.92;11.85;;;;;;;;;;5095676;28;20073;-65
2023/04/22 08:35:13;;;;;;;17.08;11.50;;;;;;;;;;5118469;27;20030;-65
2023/04/22 08:37:40;;;;;;;18.33;11.13;;;;;;;;;;5099111;28;20034;-66
2023/04/22 08:40:07;;;;;;;19.88;12.15;;;;;;;;;;5091717;28;20028;-66
2023/04/22 08:42:33;;;;;;;19.77;12.88;;;;;;;;;;5103852;28;20028;-66
2023/04/22 08:44:59;;;;;;;18.77;11.88;;;;;;;;;;5099040;27;20039;-66
2023/04/22 08:47:26;;;;;;;17.30;10.70;;;;;;;;;;5110987;28;20035;-66
2023/04/22 08:49:55;;;;;;;19.23;12.07;;;;;;;;;;5111985;28;20095;-65
2023/04/22 08:52:21;;;;;;;19.00;11.38;;;;;;;;;;5111837;28;20113;-64
2023/04/22 08:54:47;;;;;;;18.98;12.48;;;;;;;;;;5111924;28;20055;-65
2023/04/22 08:57:15;;;;;;;20.42;12.25;;;;;;;;;;5108610;28;20025;-65
2023/04/22 08:59:41;;;;;;;20.73;13.05;;;;;;;;;;5097261;28;20517;-65
2023/04/22 09:02:13;;;;;;;20.27;12.23;;;;;;;;;;5098394;28;20024;-68
2023/04/22 09:04:42;;;;;;;19.67;12.38;;;;;;;;;;5094898;28;20024;-65
2023/04/22 09:07:08;;;;;;;20.45;12.77;;;;;;;;;;5093739;28;20048;-64
2023/04/22 09:09:34;;;;;;;18.45;11.43;;;;;;;;;;5092245;28;20373;-64
2023/04/22 09:12:01;;;;;;;21.02;12.55;;;;;;;;;;5106765;28;20111;-63
2023/04/22 09:14:27;;;;;;;20.20;11.95;;;;;;;;;;5091786;28;20107;-64
2023/04/22 09:16:53;;;;;;;19.50;11.82;;;;;;;;;;5102661;28;20023;-64
2023/04/22 09:19:24;;;;;;;18.05;11.10;;;;;;;;;;5110636;28;20023;-63
2023/04/22 09:21:51;;;;;;;19.45;10.98;;;;;;;;;;5110250;28;20028;-64
2023/04/22 09:24:19;;;;;;;17.45;11.38;;;;;;;;;;5100752;28;20036;-64
2023/04/22 09:26:45;;;;;;;18.88;11.07;;;;;;;;;;5091267;28;20496;-64
2023/04/22 09:29:15;;;;;;;18.02;11.70;;;;;;;;;;5090814;28;20021;-63
2023/04/22 09:31:41;;;;;;;18.95;11.07;;;;;;;;;;5089956;28;20027;-66
2023/04/22 09:34:08;;;;;;;13.75;9.18;;;;;;;;;;5106712;28;20022;-65
2023/04/22 09:36:36;;;;;;;13.40;8.40;;;;;;;;;;5111656;28;20035;-65
2023/04/22 09:39:07;;;;;;;14.20;7.90;;;;;;;;;;5100279;28;20077;-67
2023/04/22 09:41:34;;;;;;;10.40;7.32;;;;;;;;;;5104581;28;20737;-65
2023/04/22 09:44:01;;;;;;;9.82;6.97;;;;;;;;;;5100212;28;20032;-65
2023/04/22 09:46:27;;;;;;;10.32;7.53;;;;;;;;;;5102028;28;20070;-65
2023/04/22 09:48:58;;;;;;;10.48;7.32;;;;;;;;;;5091175;28;20365;-64
2023/04/22 09:51:24;;;;;;;10.77;6.88;;;;;;;;;;5091353;28;20424;-63
2023/04/22 09:54:05;;;;;;;10.98;7.70;;;;;;;;;;5090691;28;20476;-66
2023/04/22 09:56:50;;;;;;;11.98;8.73;;;;;;;;;;5090816;28;20095;-64
2023/04/22 09:59:20;;;;;;;13.93;9.68;;;;;;;;;;5094290;28;20031;-65
2023/04/22 10:01:46;;;;;;;13.82;9.77;;;;;;;;;;5106784;28;20050;-65
2023/04/22 10:04:14;;;;;;;20.17;10.98;;;;;;;;;;5097354;28;20028;-66
2023/04/22 10:06:40;;;;;;;15.65;9.82;;;;;;;;;;5112155;28;20088;-67
2023/04/22 10:09:06;;;;;;;16.77;10.75;;;;;;;;;;5114372;28;20039;-64
2023/04/22 10:11:33;;;;;;;16.13;9.75;;;;;;;;;;5115058;28;20028;-65
2023/04/22 10:14:00;;;;;;;13.50;9.15;;;;;;;;;;5114181;28;20019;-64
2023/04/22 10:16:26;;;;;;;10.82;7.85;;;;;;;;;;5115181;28;20020;-66
2023/04/22 10:18:54;;;;;;;15.95;9.00;;;;;;;;;;5101948;28;20105;-65
2023/04/22 10:21:20;;;;;;;15.23;11.05;;;;;;;;;;5098259;28;20468;-65
2023/04/22 10:23:47;;;;;;;16.20;10.05;;;;;;;;;;5102822;28;20050;-65
2023/04/22 10:26:33;;;;;;;13.02;8.63;;;;;;;;;;5127596;27;20035;-66
2023/04/22 10:28:59;;;;;;;13.32;8.35;;;;;;;;;;5101417;27;20027;-67
2023/04/22 10:31:25;;;;;;;13.35;9.02;;;;;;;;;;5094528;28;20028;-65
2023/04/22 10:34:08;;;;;;;12.75;9.05;;;;;;;;;;5094464;28;20066;-66
2023/04/22 10:36:34;;;;;;;14.18;10.13;;;;;;;;;;5097607;28;20030;-65
2023/04/22 10:39:00;;;;;;;15.70;9.95;;;;;;;;;;5112481;28;20027;-65
2023/04/22 10:41:31;;;;;;;18.30;10.38;;;;;;;;;;5094935;28;20020;-66
2023/04/22 10:44:00;;;;;;;13.80;9.93;;;;;;;;;;5094157;28;20028;-64
2023/04/22 10:46:33;;;;;;;16.95;10.77;;;;;;;;;;5093673;28;20058;-66
2023/04/22 10:49:05;;;;;;;15.68;10.30;;;;;;;;;;5093989;28;20476;-65
2023/04/22 10:51:41;;;;;;;15.30;9.98;;;;;;;;;;5093134;28;20459;-65
2023/04/22 10:54:28;;;;;;;16.05;10.07;;;;;;;;;;5093700;28;20020;-66
2023/04/22 10:57:03;;;;;;;17.63;11.50;;;;;;;;;;5101494;28;20028;-66
2023/04/22 10:59:30;;;;;;;14.85;10.73;;;;;;;;;;5114184;28;20019;-64
2023/04/22 11:02:03;;;;;;;17.45;11.60;;;;;;;;;;5097064;28;20066;-65
2023/04/22 11:04:29;;;;;;;20.05;11.88;;;;;;;;;;5107116;28;20024;-64
2023/04/22 11:07:19;;;;;;;17.88;11.77;;;;;;;;;;5101772;28;20040;-63
2023/04/22 11:09:46;;;;;;;18.48;12.45;;;;;;;;;;5096654;28;20032;-64
2023/04/22 11:12:30;;;;;;;18.67;11.43;;;;;;;;;;5105136;28;20586;-64
2023/04/22 11:14:56;;;;;;;21.00;12.82;;;;;;;;;;5113963;28;20044;-64
2023/04/22 11:17:22;;;;;;;20.30;12.85;;;;;;;;;;5114016;28;20019;-64
2023/04/22 11:19:54;;;;;;;23.95;13.35;;;;;;;;;;5113802;28;20019;-65
2023/04/22 11:22:21;;;;;;;;;;;;;;;;;;5114255;28;20027;-65
2023/04/22 11:24:56;;;;;;;21.20;13.77;;;;;;;;;;5114041;28;19954;-65
2023/04/22 11:27:25;;;;;;;19.13;13.23;;;;;;;;;;5113802;28;20127;-65
2023/04/22 11:30:01;;;;;;;24.23;14.43;;;;;;;;;;5111915;28;20054;-65
2023/04/22 11:32:28;;;;;;;24.30;14.32;;;;;;;;;;5113633;28;20449;-65
2023/04/22 11:34:54;;;;;;;21.92;13.77;;;;;;;;;;5113566;28;20020;-65
2023/04/22 11:37:21;;;;;;;21.98;14.02;;;;;;;;;;5113948;28;20028;-65
2023/04/22 11:39:49;;;;;;;19.95;13.45;;;;;;;;;;5112319;28;20452;-65
2023/04/22 11:42:15;;;;;;;23.42;13.73;;;;;;;;;;5113819;28;20107;-65
2023/04/22 11:44:44;;;;;;;23.77;15.27;;;;;;;;;;5113389;28;20024;-65
2023/04/22 11:47:11;;;;;;;22.98;14.45;;;;;;;;;;5113194;28;20079;-65
2023/04/22 11:49:38;;;;;;;25.08;14.13;;;;;;;;;;5112180;28;20038;-64
2023/04/22 11:52:04;;;;;;;22.23;13.88;;;;;;;;;;5113360;28;20084;-64
2023/04/22 11:54:36;;;;;;;21.63;14.48;;;;;;;;;;5113292;28;20497;-65
2023/04/22 11:57:07;;;;;;;23.75;15.40;;;;;;;;;;5113174;28;20372;-64
2023/04/22 11:59:33;;;;;;;22.60;15.40;;;;;;;;;;5113299;28;20028;-64
2023/04/22 12:01:59;;;;;;;23.75;14.63;;;;;;;;;;5113041;28;20484;-64
2023/04/22 12:04:25;;;;;;;23.83;14.38;;;;;;;;;;5113071;28;20052;-64
2023/04/22 12:06:52;;;;;;;24.35;15.43;;;;;;;;;;5112048;28;20126;-65
2023/04/22 12:09:18;;;;;;;26.95;15.73;;;;;;;;;;5112983;28;20119;-64
2023/04/22 12:11:46;;;;;;;21.73;14.63;;;;;;;;;;5112700;28;20491;-64
2023/04/22 12:14:13;;;;;;;24.20;14.48;;;;;;;;;;5112988;28;20094;-65
2023/04/22 12:16:40;;;;;;;24.25;14.90;;;;;;;;;;5100952;28;20028;-65
2023/04/22 12:19:06;;;;;;;25.35;15.15;;;;;;;;;;5111202;27;20044;-64
2023/04/22 12:21:32;;;;;;;26.45;15.50;;;;;;;;;;5097657;28;20548;-64
2023/04/22 12:24:03;;;;;;;26.08;14.95;;;;;;;;;;5104217;28;20035;-65
2023/04/22 12:26:29;;;;;;;26.63;15.02;;;;;;;;;;5104919;28;20044;-65
2023/04/22 12:28:56;;;;;;;30.42;17.27;;;;;;;;;;5097039;28;20024;-65
2023/04/22 12:31:23;;;;;;;25.40;15.88;;;;;;;;;;5103922;28;20165;-64
2023/04/22 12:33:49;;;;;;;25.80;15.73;;;;;;;;;;5092073;28;20482;-66
2023/04/22 12:36:16;;;;;;;25.77;16.27;;;;;;;;;;5093444;28;20024;-67
2023/04/22 12:38:42;;;;;;;28.63;16.63;;;;;;;;;;5096027;27;20023;-64
2023/04/22 12:41:09;;;;;;;26.08;16.48;;;;;;;;;;5118906;27;20023;-65
2023/04/22 12:43:35;;;;;;;30.52;18.27;;;;;;;;;;5112333;28;20023;-66
2023/04/22 12:46:02;;;;;;;28.80;17.08;;;;;;;;;;5092885;28;20040;-66
2023/04/22 12:48:28;;;;;;;29.27;16.80;;;;;;;;;;5099777;28;20046;-65
2023/04/22 12:50:56;;;;;;;31.52;16.83;;;;;;;;;;5111947;28;20026;-67
2023/04/22 12:53:22;;;;;;;28.95;16.90;;;;;;;;;;5106706;28;20092;-66
2023/04/22 12:55:48;;;;;;;28.70;16.17;;;;;;;;;;5100834;28;20031;-64
2023/04/22 12:58:14;;;;;;;27.70;16.05;;;;;;;;;;5101425;28;20035;-66
2023/04/22 13:00:40;;;;;;;26.67;15.85;;;;;;;;;;5103538;28;20085;-65
2023/04/22 13:03:06;;;;;;;27.98;16.15;;;;;;;;;;5104019;28;20415;-64
2023/04/22 13:05:32;;;;;;;26.58;15.73;;;;;;;;;;5105275;28;20028;-64
2023/04/22 13:07:59;;;;;;;25.52;14.85;;;;;;;;;;5108062;28;20092;-64
2023/04/22 13:10:27;;;;;;;22.85;14.02;;;;;;;;;;5110603;28;20400;-64
2023/04/22 13:12:53;;;;;;;24.67;15.32;;;;;;;;;;5111831;28;20430;-65
2023/04/22 13:15:20;;;;;;;24.00;15.27;;;;;;;;;;5111757;28;20019;-63
2023/04/22 13:17:46;;;;;;;23.23;14.38;;;;;;;;;;5099288;28;20023;-64
2023/04/22 13:20:13;;;;;;;24.30;14.93;;;;;;;;;;5096150;28;20019;-65
2023/04/22 13:22:39;;;;;;;25.10;14.73;;;;;;;;;;5110539;28;20030;-64
2023/04/22 13:25:06;;;;;;;22.63;14.32;;;;;;;;;;5111467;28;20027;-64
2023/04/22 13:27:33;;;;;;;24.23;14.07;;;;;;;;;;5100663;28;20035;-64
2023/04/22 13:29:59;;;;;;;22.77;14.55;;;;;;;;;;5091922;28;20031;-64
2023/04/22 13:32:25;;;;;;;23.17;14.45;;;;;;;;;;5090169;28;20107;-61
2023/04/22 13:34:51;;;;;;;21.55;13.30;;;;;;;;;;5097139;28;20030;-62
2023/04/22 13:37:19;;;;;;;21.27;14.40;;;;;;;;;;5111455;28;20030;-65
2023/04/22 13:39:45;;;;;;;21.45;13.77;;;;;;;;;;5098730;28;20024;-66
2023/04/22 13:42:11;;;;;;;21.05;12.50;;;;;;;;;;5090993;28;20062;-63
2023/04/22 13:44:37;;;;;;;20.65;13.20;;;;;;;;;;5093385;28;20579;-61
2023/04/22 13:47:03;;;;;;;19.80;12.93;;;;;;;;;;5090657;28;20495;-64
2023/04/22 13:49:29;;;;;;;17.73;12.15;;;;;;;;;;5094311;28;20023;-62
2023/04/22 13:51:55;;;;;;;17.75;13.55;;;;;;;;;;5106251;28;20106;-62
2023/04/22 13:54:21;;;;;;;16.98;12.52;;;;;;;;;;5097074;28;20568;-63
2023/04/22 13:56:48;;;;;;;16.35;11.60;;;;;;;;;;5122310;28;20399;-64
2023/04/22 13:59:14;;;;;;;16.27;10.90;;;;;;;;;;5131670;28;20026;-64
2023/04/22 14:01:41;;;;;;;15.85;11.43;;;;;;;;;;5118335;28;20023;-65
2023/04/22 14:04:07;;;;;;;16.70;12.60;;;;;;;;;;5109322;28;20038;-63
2023/04/22 14:06:34;;;;;;;16.85;12.57;;;;;;;;;;5102028;28;20148;-64
2023/04/22 14:09:03;;;;;;;12.80;9.80;;;;;;;;;;5110732;28;20020;-64
2023/04/22 14:11:32;;;;;;;15.07;10.65;;;;;;;;;;5109021;28;20027;-65
2023/04/22 14:13:59;;;;;;;15.43;10.38;;;;;;;;;;5110425;28;20038;-64
2023/04/22 14:16:25;;;;;;;12.88;9.60;;;;;;;;;;5109465;28;20357;-65